sensor_id;sensor_type;location;lat;lon;timestamp;P1;durP1;ratioP1;P2;durP2;ratioP2
10645;SDS011;5371;49.782;9.932;2024-03-02T00:00:49;39.93;;;21.73;;
10645;SDS011;5371;49.782;9.932;2024-03-02T00:03:16;32.53;;;20.27;;
10645;SDS011;5371;49.782;9.932;2024-03-02T00:05:43;31.73;;;19.57;;
10645;SDS011;5371;49.782;9.932;2024-03-02T00:08:12;33.27;;;20.77;;
10645;SDS011;5371;49.782;9.932;2024-03-02T00:10:41;38.43;;;21.03;;
10645;SDS011;5371;49.782;9.932;2024-03-02T00:13:08;38.73;;;21.53;;
10645;SDS011;5371;49.782;9.932;2024-03-02T00:15:40;36.30;;;20.93;;
10645;SDS011;5371;49.782;9.932;2024-03-02T00:18:08;38.73;;;21.27;;
10645;SDS011;5371;49.782;9.932;2024-03-02T00:20:37;37.10;;;22.10;;
10645;SDS011;5371;49.782;9.932;2024-03-02T00:23:05;30.80;;;19.70;;
10645;SDS011;5371;49.782;9.932;2024-03-02T00:25:40;32.73;;;20.27;;
10645;SDS011;5371;49.782;9.932;2024-03-02T00:28:16;33.77;;;21.07;;
10645;SDS011;5371;49.782;9.932;2024-03-02T00:33:37;35.47;;;21.23;;
10645;SDS011;5371;49.782;9.932;2024-03-02T00:36:06;33.13;;;20.87;;
10645;SDS011;5371;49.782;9.932;2024-03-02T00:38:34;32.60;;;19.47;;
10645;SDS011;5371;49.782;9.932;2024-03-02T00:41:17;32.63;;;19.87;;
10645;SDS011;5371;49.782;9.932;2024-03-02T00:43:50;31.20;;;19.57;;
10645;SDS011;5371;49.782;9.932;2024-03-02T00:46:23;37.47;;;20.77;;
10645;SDS011;5371;49.782;9.932;2024-03-02T00:48:52;36.73;;;21.03;;
10645;SDS011;5371;49.782;9.932;2024-03-02T00:51:21;33.50;;;20.83;;
10645;SDS011;5371;49.782;9.932;2024-03-02T00:53:48;37.17;;;21.27;;
10645;SDS011;5371;49.782;9.932;2024-03-02T00:56:17;38.60;;;20.93;;
10645;SDS011;5371;49.782;9.932;2024-03-02T00:58:44;34.63;;;21.40;;
10645;SDS011;5371;49.782;9.932;2024-03-02T01:01:11;38.67;;;20.63;;
10645;SDS011;5371;49.782;9.932;2024-03-02T01:03:38;34.90;;;20.00;;
10645;SDS011;5371;49.782;9.932;2024-03-02T01:06:06;33.93;;;19.53;;
10645;SDS011;5371;49.782;9.932;2024-03-02T01:08:34;35.33;;;20.70;;
10645;SDS011;5371;49.782;9.932;2024-03-02T01:11:01;35.57;;;19.30;;
10645;SDS011;5371;49.782;9.932;2024-03-02T01:13:29;31.17;;;18.83;;
10645;SDS011;5371;49.782;9.932;2024-03-02T01:15:56;28.97;;;18.00;;
10645;SDS011;5371;49.782;9.932;2024-03-02T01:18:23;35.07;;;19.00;;
10645;SDS011;5371;49.782;9.932;2024-03-02T01:20:51;37.50;;;20.80;;
10645;SDS011;5371;49.782;9.932;2024-03-02T01:23:18;33.83;;;20.00;;
10645;SDS011;5371;49.782;9.932;2024-03-02T01:25:46;38.30;;;21.80;;
10645;SDS011;5371;49.782;9.932;2024-03-02T01:28:13;37.67;;;20.63;;
10645;SDS011;5371;49.782;9.932;2024-03-02T01:30:41;35.10;;;20.67;;
10645;SDS011;5371;49.782;9.932;2024-03-02T01:33:08;33.93;;;20.83;;
10645;SDS011;5371;49.782;9.932;2024-03-02T01:35:36;33.13;;;19.80;;
10645;SDS011;5371;49.782;9.932;2024-03-02T01:38:03;34.17;;;20.67;;
10645;SDS011;5371;49.782;9.932;2024-03-02T01:40:31;36.17;;;20.90;;
10645;SDS011;5371;49.782;9.932;2024-03-02T01:42:58;37.53;;;21.23;;
10645;SDS011;5371;49.782;9.932;2024-03-02T01:45:26;37.00;;;20.73;;
10645;SDS011;5371;49.782;9.932;2024-03-02T01:47:54;33.80;;;20.97;;
10645;SDS011;5371;49.782;9.932;2024-03-02T01:50:25;33.17;;;20.30;;
10645;SDS011;5371;49.782;9.932;2024-03-02T01:52:52;34.93;;;20.60;;
10645;SDS011;5371;49.782;9.932;2024-03-02T01:55:19;37.27;;;20.87;;
10645;SDS011;5371;49.782;9.932;2024-03-02T01:57:47;34.97;;;20.40;;
10645;SDS011;5371;49.782;9.932;2024-03-02T02:00:14;34.90;;;20.33;;
10645;SDS011;5371;49.782;9.932;2024-03-02T02:02:42;36.30;;;20.57;;
10645;SDS011;5371;49.782;9.932;2024-03-02T02:05:10;38.17;;;21.50;;
10645;SDS011;5371;49.782;9.932;2024-03-02T02:07:37;35.73;;;19.73;;
10645;SDS011;5371;49.782;9.932;2024-03-02T02:10:05;37.10;;;20.03;;
10645;SDS011;5371;49.782;9.932;2024-03-02T02:12:32;32.30;;;19.70;;
10645;SDS011;5371;49.782;9.932;2024-03-02T02:14:59;34.97;;;20.23;;
10645;SDS011;5371;49.782;9.932;2024-03-02T02:17:26;35.23;;;19.83;;
10645;SDS011;5371;49.782;9.932;2024-03-02T02:19:53;38.47;;;21.17;;
10645;SDS011;5371;49.782;9.932;2024-03-02T02:22:21;39.90;;;20.77;;
10645;SDS011;5371;49.782;9.932;2024-03-02T02:24:48;36.90;;;21.00;;
10645;SDS011;5371;49.782;9.932;2024-03-02T02:27:15;36.47;;;20.90;;
10645;SDS011;5371;49.782;9.932;2024-03-02T02:29:42;38.13;;;21.13;;
10645;SDS011;5371;49.782;9.932;2024-03-02T02:32:09;37.57;;;20.53;;
10645;SDS011;5371;49.782;9.932;2024-03-02T02:34:35;37.53;;;21.97;;
10645;SDS011;5371;49.782;9.932;2024-03-02T02:37:02;37.93;;;22.33;;
10645;SDS011;5371;49.782;9.932;2024-03-02T02:39:31;41.60;;;21.73;;
10645;SDS011;5371;49.782;9.932;2024-03-02T02:41:57;35.93;;;21.03;;
10645;SDS011;5371;49.782;9.932;2024-03-02T02:44:28;36.80;;;21.53;;
10645;SDS011;5371;49.782;9.932;2024-03-02T02:46:55;36.87;;;21.27;;
10645;SDS011;5371;49.782;9.932;2024-03-02T02:49:22;34.23;;;21.37;;
10645;SDS011;5371;49.782;9.932;2024-03-02T02:51:49;37.67;;;22.17;;
10645;SDS011;5371;49.782;9.932;2024-03-02T02:54:16;37.10;;;22.03;;
10645;SDS011;5371;49.782;9.932;2024-03-02T02:56:44;38.23;;;22.93;;
10645;SDS011;5371;49.782;9.932;2024-03-02T02:59:11;36.23;;;20.10;;
10645;SDS011;5371;49.782;9.932;2024-03-02T03:01:38;35.50;;;20.43;;
10645;SDS011;5371;49.782;9.932;2024-03-02T03:04:05;34.50;;;21.40;;
10645;SDS011;5371;49.782;9.932;2024-03-02T03:06:32;37.17;;;21.83;;
10645;SDS011;5371;49.782;9.932;2024-03-02T03:08:58;34.60;;;20.70;;
10645;SDS011;5371;49.782;9.932;2024-03-02T03:11:25;43.13;;;21.93;;
10645;SDS011;5371;49.782;9.932;2024-03-02T03:13:54;37.07;;;20.50;;
10645;SDS011;5371;49.782;9.932;2024-03-02T03:16:21;35.90;;;20.10;;
10645;SDS011;5371;49.782;9.932;2024-03-02T03:18:48;35.80;;;19.27;;
10645;SDS011;5371;49.782;9.932;2024-03-02T03:21:16;33.40;;;19.07;;
10645;SDS011;5371;49.782;9.932;2024-03-02T03:23:43;35.43;;;19.37;;
10645;SDS011;5371;49.782;9.932;2024-03-02T03:26:10;36.13;;;20.50;;
10645;SDS011;5371;49.782;9.932;2024-03-02T03:28:37;32.33;;;18.53;;
10645;SDS011;5371;49.782;9.932;2024-03-02T03:31:05;36.47;;;19.27;;
10645;SDS011;5371;49.782;9.932;2024-03-02T03:33:32;30.77;;;18.90;;
10645;SDS011;5371;49.782;9.932;2024-03-02T03:35:59;34.90;;;20.20;;
10645;SDS011;5371;49.782;9.932;2024-03-02T03:38:28;37.70;;;19.67;;
10645;SDS011;5371;49.782;9.932;2024-03-02T03:40:55;33.23;;;18.47;;
10645;SDS011;5371;49.782;9.932;2024-03-02T03:43:22;30.87;;;19.43;;
10645;SDS011;5371;49.782;9.932;2024-03-02T03:45:49;33.77;;;20.33;;
10645;SDS011;5371;49.782;9.932;2024-03-02T03:48:18;36.60;;;19.80;;
10645;SDS011;5371;49.782;9.932;2024-03-02T03:50:45;40.93;;;20.97;;
10645;SDS011;5371;49.782;9.932;2024-03-02T03:53:12;36.53;;;21.20;;
10645;SDS011;5371;49.782;9.932;2024-03-02T03:55:40;39.57;;;21.47;;
10645;SDS011;5371;49.782;9.932;2024-03-02T03:58:06;35.17;;;20.67;;
10645;SDS011;5371;49.782;9.932;2024-03-02T04:00:33;34.60;;;19.87;;
10645;SDS011;5371;49.782;9.932;2024-03-02T04:03:00;32.33;;;19.10;;
10645;SDS011;5371;49.782;9.932;2024-03-02T04:05:28;33.53;;;18.50;;
10645;SDS011;5371;49.782;9.932;2024-03-02T04:07:55;34.37;;;20.13;;
10645;SDS011;5371;49.782;9.932;2024-03-02T04:10:22;35.27;;;19.27;;
10645;SDS011;5371;49.782;9.932;2024-03-02T04:12:49;33.70;;;19.23;;
10645;SDS011;5371;49.782;9.932;2024-03-02T04:15:17;35.70;;;19.43;;
10645;SDS011;5371;49.782;9.932;2024-03-02T04:17:45;36.23;;;19.03;;
10645;SDS011;5371;49.782;9.932;2024-03-02T04:20:12;38.73;;;20.13;;
10645;SDS011;5371;49.782;9.932;2024-03-02T04:22:40;36.03;;;19.93;;
10645;SDS011;5371;49.782;9.932;2024-03-02T04:25:07;35.30;;;19.33;;
10645;SDS011;5371;49.782;9.932;2024-03-02T04:27:35;34.70;;;19.77;;
10645;SDS011;5371;49.782;9.932;2024-03-02T04:30:02;36.77;;;19.53;;
10645;SDS011;5371;49.782;9.932;2024-03-02T04:32:31;32.40;;;18.97;;
10645;SDS011;5371;49.782;9.932;2024-03-02T04:34:58;34.37;;;19.30;;
10645;SDS011;5371;49.782;9.932;2024-03-02T04:37:25;36.77;;;19.43;;
10645;SDS011;5371;49.782;9.932;2024-03-02T04:39:53;37.30;;;20.87;;
10645;SDS011;5371;49.782;9.932;2024-03-02T04:42:20;36.97;;;19.83;;
10645;SDS011;5371;49.782;9.932;2024-03-02T04:44:48;40.87;;;20.63;;
10645;SDS011;5371;49.782;9.932;2024-03-02T04:47:15;37.37;;;19.90;;
10645;SDS011;5371;49.782;9.932;2024-03-02T04:49:41;36.33;;;20.20;;
10645;SDS011;5371;49.782;9.932;2024-03-02T04:52:09;38.23;;;20.50;;
10645;SDS011;5371;49.782;9.932;2024-03-02T04:54:36;38.13;;;20.37;;
10645;SDS011;5371;49.782;9.932;2024-03-02T04:57:24;38.80;;;19.53;;
10645;SDS011;5371;49.782;9.932;2024-03-02T04:59:50;35.40;;;19.80;;
10645;SDS011;5371;49.782;9.932;2024-03-02T05:02:17;36.57;;;20.10;;
10645;SDS011;5371;49.782;9.932;2024-03-02T05:04:44;38.37;;;20.37;;
10645;SDS011;5371;49.782;9.932;2024-03-02T05:07:11;40.20;;;20.53;;
10645;SDS011;5371;49.782;9.932;2024-03-02T05:09:39;36.37;;;18.93;;
10645;SDS011;5371;49.782;9.932;2024-03-02T05:12:06;34.80;;;20.67;;
10645;SDS011;5371;49.782;9.932;2024-03-02T05:14:50;40.63;;;20.03;;
10645;SDS011;5371;49.782;9.932;2024-03-02T05:17:17;37.70;;;19.93;;
10645;SDS011;5371;49.782;9.932;2024-03-02T05:19:44;39.60;;;20.70;;
10645;SDS011;5371;49.782;9.932;2024-03-02T05:22:11;35.97;;;19.37;;
10645;SDS011;5371;49.782;9.932;2024-03-02T05:24:38;38.80;;;21.47;;
10645;SDS011;5371;49.782;9.932;2024-03-02T05:27:05;37.17;;;20.53;;
10645;SDS011;5371;49.782;9.932;2024-03-02T05:29:32;37.10;;;19.77;;
10645;SDS011;5371;49.782;9.932;2024-03-02T05:32:01;38.70;;;20.07;;
10645;SDS011;5371;49.782;9.932;2024-03-02T05:34:28;39.80;;;19.90;;
10645;SDS011;5371;49.782;9.932;2024-03-02T05:36:56;39.57;;;19.37;;
10645;SDS011;5371;49.782;9.932;2024-03-02T05:39:24;38.67;;;20.50;;
10645;SDS011;5371;49.782;9.932;2024-03-02T05:41:51;37.67;;;20.90;;
10645;SDS011;5371;49.782;9.932;2024-03-02T05:44:18;36.30;;;18.80;;
10645;SDS011;5371;49.782;9.932;2024-03-02T05:46:45;36.80;;;20.37;;
10645;SDS011;5371;49.782;9.932;2024-03-02T05:49:13;36.90;;;19.73;;
10645;SDS011;5371;49.782;9.932;2024-03-02T05:51:40;36.93;;;19.53;;
10645;SDS011;5371;49.782;9.932;2024-03-02T05:54:07;34.60;;;18.70;;
10645;SDS011;5371;49.782;9.932;2024-03-02T05:56:34;37.67;;;20.37;;
10645;SDS011;5371;49.782;9.932;2024-03-02T05:59:01;38.93;;;19.87;;
10645;SDS011;5371;49.782;9.932;2024-03-02T06:01:37;36.57;;;18.77;;
10645;SDS011;5371;49.782;9.932;2024-03-02T06:04:08;32.80;;;18.50;;
10645;SDS011;5371;49.782;9.932;2024-03-02T06:06:37;36.30;;;18.80;;
10645;SDS011;5371;49.782;9.932;2024-03-02T06:09:04;33.00;;;18.57;;
10645;SDS011;5371;49.782;9.932;2024-03-02T06:11:33;32.30;;;18.00;;
10645;SDS011;5371;49.782;9.932;2024-03-02T06:14:00;33.60;;;19.07;;
10645;SDS011;5371;49.782;9.932;2024-03-02T06:16:28;33.50;;;18.80;;
10645;SDS011;5371;49.782;9.932;2024-03-02T06:18:55;35.07;;;18.80;;
10645;SDS011;5371;49.782;9.932;2024-03-02T06:21:23;35.77;;;19.63;;
10645;SDS011;5371;49.782;9.932;2024-03-02T06:23:51;38.90;;;19.80;;
10645;SDS011;5371;49.782;9.932;2024-03-02T06:26:19;40.77;;;20.10;;
10645;SDS011;5371;49.782;9.932;2024-03-02T06:28:47;34.63;;;19.27;;
10645;SDS011;5371;49.782;9.932;2024-03-02T06:31:14;37.03;;;19.27;;
10645;SDS011;5371;49.782;9.932;2024-03-02T06:33:41;34.53;;;19.10;;
10645;SDS011;5371;49.782;9.932;2024-03-02T06:36:08;35.27;;;19.60;;
10645;SDS011;5371;49.782;9.932;2024-03-02T06:38:37;35.60;;;19.03;;
10645;SDS011;5371;49.782;9.932;2024-03-02T06:41:07;30.60;;;17.67;;
10645;SDS011;5371;49.782;9.932;2024-03-02T06:43:34;31.07;;;17.77;;
10645;SDS011;5371;49.782;9.932;2024-03-02T06:46:01;33.37;;;18.20;;
10645;SDS011;5371;49.782;9.932;2024-03-02T06:48:28;31.87;;;18.07;;
10645;SDS011;5371;49.782;9.932;2024-03-02T06:50:55;31.23;;;16.50;;
10645;SDS011;5371;49.782;9.932;2024-03-02T06:53:23;31.77;;;17.93;;
10645;SDS011;5371;49.782;9.932;2024-03-02T06:55:50;31.90;;;18.23;;
10645;SDS011;5371;49.782;9.932;2024-03-02T06:58:19;30.70;;;17.47;;
10645;SDS011;5371;49.782;9.932;2024-03-02T07:00:46;35.37;;;18.27;;
10645;SDS011;5371;49.782;9.932;2024-03-02T07:03:14;31.90;;;17.70;;
10645;SDS011;5371;49.782;9.932;2024-03-02T07:05:41;33.33;;;17.83;;
10645;SDS011;5371;49.782;9.932;2024-03-02T07:08:08;31.07;;;17.60;;
10645;SDS011;5371;49.782;9.932;2024-03-02T07:10:35;33.97;;;18.50;;
10645;SDS011;5371;49.782;9.932;2024-03-02T07:13:02;31.60;;;17.90;;
10645;SDS011;5371;49.782;9.932;2024-03-02T07:15:31;33.23;;;17.30;;
10645;SDS011;5371;49.782;9.932;2024-03-02T07:18:20;30.20;;;16.80;;
10645;SDS011;5371;49.782;9.932;2024-03-02T07:20:46;29.50;;;17.67;;
10645;SDS011;5371;49.782;9.932;2024-03-02T07:23:15;28.83;;;18.03;;
10645;SDS011;5371;49.782;9.932;2024-03-02T07:25:42;34.93;;;17.43;;
10645;SDS011;5371;49.782;9.932;2024-03-02T07:28:09;31.87;;;16.90;;
10645;SDS011;5371;49.782;9.932;2024-03-02T07:30:37;29.70;;;17.30;;
10645;SDS011;5371;49.782;9.932;2024-03-02T07:33:05;30.00;;;16.90;;
10645;SDS011;5371;49.782;9.932;2024-03-02T07:35:32;27.23;;;16.43;;
10645;SDS011;5371;49.782;9.932;2024-03-02T07:37:59;27.40;;;17.07;;
10645;SDS011;5371;49.782;9.932;2024-03-02T07:40:27;33.57;;;16.03;;
10645;SDS011;5371;49.782;9.932;2024-03-02T07:42:54;28.10;;;17.17;;
10645;SDS011;5371;49.782;9.932;2024-03-02T07:45:21;28.93;;;17.47;;
10645;SDS011;5371;49.782;9.932;2024-03-02T07:47:49;25.53;;;15.87;;
10645;SDS011;5371;49.782;9.932;2024-03-02T07:50:17;26.50;;;16.30;;
10645;SDS011;5371;49.782;9.932;2024-03-02T07:52:44;26.23;;;16.40;;
10645;SDS011;5371;49.782;9.932;2024-03-02T07:55:11;28.07;;;16.50;;
10645;SDS011;5371;49.782;9.932;2024-03-02T07:57:38;25.20;;;16.17;;
10645;SDS011;5371;49.782;9.932;2024-03-02T08:00:04;25.73;;;15.37;;
10645;SDS011;5371;49.782;9.932;2024-03-02T08:02:37;22.43;;;14.97;;
10645;SDS011;5371;49.782;9.932;2024-03-02T08:05:06;26.13;;;16.50;;
10645;SDS011;5371;49.782;9.932;2024-03-02T08:07:33;24.60;;;16.20;;
10645;SDS011;5371;49.782;9.932;2024-03-02T08:10:00;25.07;;;15.80;;
10645;SDS011;5371;49.782;9.932;2024-03-02T08:12:32;30.03;;;16.87;;
10645;SDS011;5371;49.782;9.932;2024-03-02T08:14:59;26.47;;;17.00;;
10645;SDS011;5371;49.782;9.932;2024-03-02T08:17:26;25.83;;;17.23;;
10645;SDS011;5371;49.782;9.932;2024-03-02T08:19:52;26.60;;;16.00;;
10645;SDS011;5371;49.782;9.932;2024-03-02T08:22:21;26.47;;;16.33;;
10645;SDS011;5371;49.782;9.932;2024-03-02T08:24:48;23.93;;;15.97;;
10645;SDS011;5371;49.782;9.932;2024-03-02T08:27:15;23.87;;;14.80;;
10645;SDS011;5371;49.782;9.932;2024-03-02T08:29:42;24.50;;;15.13;;
10645;SDS011;5371;49.782;9.932;2024-03-02T08:32:09;24.90;;;15.47;;
10645;SDS011;5371;49.782;9.932;2024-03-02T08:34:36;26.77;;;15.37;;
10645;SDS011;5371;49.782;9.932;2024-03-02T08:37:03;24.77;;;15.53;;
10645;SDS011;5371;49.782;9.932;2024-03-02T08:39:31;20.73;;;14.07;;
10645;SDS011;5371;49.782;9.932;2024-03-02T08:41:58;23.77;;;14.73;;
10645;SDS011;5371;49.782;9.932;2024-03-02T08:44:25;22.33;;;14.67;;
10645;SDS011;5371;49.782;9.932;2024-03-02T08:46:52;20.57;;;14.23;;
10645;SDS011;5371;49.782;9.932;2024-03-02T08:49:19;23.30;;;14.73;;
10645;SDS011;5371;49.782;9.932;2024-03-02T08:51:46;21.23;;;14.97;;
10645;SDS011;5371;49.782;9.932;2024-03-02T08:54:19;21.23;;;14.37;;
10645;SDS011;5371;49.782;9.932;2024-03-02T08:56:48;21.73;;;14.77;;
10645;SDS011;5371;49.782;9.932;2024-03-02T08:59:15;24.10;;;14.50;;
10645;SDS011;5371;49.782;9.932;2024-03-02T09:01:42;21.40;;;14.57;;
10645;SDS011;5371;49.782;9.932;2024-03-02T09:04:10;21.17;;;13.97;;
10645;SDS011;5371;49.782;9.932;2024-03-02T09:06:37;27.43;;;18.07;;
10645;SDS011;5371;49.782;9.932;2024-03-02T09:09:04;20.50;;;13.95;;
10645;SDS011;5371;49.782;9.932;2024-03-02T09:11:32;18.97;;;13.37;;
10645;SDS011;5371;49.782;9.932;2024-03-02T09:14:00;20.70;;;13.50;;
10645;SDS011;5371;49.782;9.932;2024-03-02T09:16:27;20.60;;;13.70;;
10645;SDS011;5371;49.782;9.932;2024-03-02T09:18:56;21.58;;;14.23;;
10645;SDS011;5371;49.782;9.932;2024-03-02T09:21:23;20.20;;;14.60;;
10645;SDS011;5371;49.782;9.932;2024-03-02T09:23:50;19.20;;;13.93;;
10645;SDS011;5371;49.782;9.932;2024-03-02T09:26:17;21.95;;;13.45;;
10645;SDS011;5371;49.782;9.932;2024-03-02T09:28:46;19.85;;;13.90;;
10645;SDS011;5371;49.782;9.932;2024-03-02T09:31:14;19.73;;;13.93;;
10645;SDS011;5371;49.782;9.932;2024-03-02T09:33:41;19.75;;;13.65;;
10645;SDS011;5371;49.782;9.932;2024-03-02T09:36:16;23.23;;;14.15;;
10645;SDS011;5371;49.782;9.932;2024-03-02T09:38:43;18.17;;;12.82;;
10645;SDS011;5371;49.782;9.932;2024-03-02T09:41:10;20.00;;;13.48;;
10645;SDS011;5371;49.782;9.932;2024-03-02T09:43:37;19.90;;;14.00;;
10645;SDS011;5371;49.782;9.932;2024-03-02T09:46:04;19.75;;;14.13;;
10645;SDS011;5371;49.782;9.932;2024-03-02T09:48:33;21.60;;;14.20;;
10645;SDS011;5371;49.782;9.932;2024-03-02T09:51:00;19.45;;;13.32;;
10645;SDS011;5371;49.782;9.932;2024-03-02T09:53:28;18.60;;;13.32;;
10645;SDS011;5371;49.782;9.932;2024-03-02T09:55:58;26.67;;;17.75;;
10645;SDS011;5371;49.782;9.932;2024-03-02T09:58:25;21.83;;;13.18;;
10645;SDS011;5371;49.782;9.932;2024-03-02T10:00:52;21.52;;;13.48;;
10645;SDS011;5371;49.782;9.932;2024-03-02T10:03:19;18.25;;;12.95;;
10645;SDS011;5371;49.782;9.932;2024-03-02T10:05:48;20.35;;;12.68;;
10645;SDS011;5371;49.782;9.932;2024-03-02T10:08:15;18.30;;;13.13;;
10645;SDS011;5371;49.782;9.932;2024-03-02T10:10:42;17.30;;;12.65;;
10645;SDS011;5371;49.782;9.932;2024-03-02T10:13:09;17.25;;;12.43;;
10645;SDS011;5371;49.782;9.932;2024-03-02T10:15:38;17.02;;;12.15;;
10645;SDS011;5371;49.782;9.932;2024-03-02T10:18:08;16.65;;;11.95;;
10645;SDS011;5371;49.782;9.932;2024-03-02T10:20:35;14.68;;;11.70;;
10645;SDS011;5371;49.782;9.932;2024-03-02T10:23:13;18.00;;;12.02;;
10645;SDS011;5371;49.782;9.932;2024-03-02T10:25:41;15.52;;;11.50;;
10645;SDS011;5371;49.782;9.932;2024-03-02T10:28:09;15.93;;;12.00;;
10645;SDS011;5371;49.782;9.932;2024-03-02T10:30:36;14.82;;;11.68;;
10645;SDS011;5371;49.782;9.932;2024-03-02T10:33:03;14.73;;;11.30;;
10645;SDS011;5371;49.782;9.932;2024-03-02T10:35:31;14.68;;;11.25;;
10645;SDS011;5371;49.782;9.932;2024-03-02T10:38:03;15.40;;;11.60;;
10645;SDS011;5371;49.782;9.932;2024-03-02T10:40:31;14.40;;;11.00;;
10645;SDS011;5371;49.782;9.932;2024-03-02T10:42:59;16.65;;;11.20;;
10645;SDS011;5371;49.782;9.932;2024-03-02T10:45:27;13.25;;;9.80;;
10645;SDS011;5371;49.782;9.932;2024-03-02T10:47:54;13.60;;;10.73;;
10645;SDS011;5371;49.782;9.932;2024-03-02T10:50:21;13.73;;;10.75;;
10645;SDS011;5371;49.782;9.932;2024-03-02T10:52:48;14.48;;;10.43;;
10645;SDS011;5371;49.782;9.932;2024-03-02T10:55:15;12.52;;;10.05;;
10645;SDS011;5371;49.782;9.932;2024-03-02T10:57:51;13.10;;;10.38;;
10645;SDS011;5371;49.782;9.932;2024-03-02T11:00:19;13.27;;;9.88;;
10645;SDS011;5371;49.782;9.932;2024-03-02T11:02:50;12.27;;;9.57;;
10645;SDS011;5371;49.782;9.932;2024-03-02T11:05:21;11.98;;;9.52;;
10645;SDS011;5371;49.782;9.932;2024-03-02T11:07:53;12.52;;;9.35;;
10645;SDS011;5371;49.782;9.932;2024-03-02T11:10:23;13.18;;;9.60;;
10645;SDS011;5371;49.782;9.932;2024-03-02T11:12:53;11.57;;;9.23;;
10645;SDS011;5371;49.782;9.932;2024-03-02T11:15:22;44.80;;;9.50;;
10645;SDS011;5371;49.782;9.932;2024-03-02T11:17:51;13.65;;;8.60;;
10645;SDS011;5371;49.782;9.932;2024-03-02T11:20:19;28.90;;;9.40;;
10645;SDS011;5371;49.782;9.932;2024-03-02T11:22:46;10.43;;;8.38;;
10645;SDS011;5371;49.782;9.932;2024-03-02T11:25:22;10.35;;;8.52;;
10645;SDS011;5371;49.782;9.932;2024-03-02T11:28:00;13.55;;;8.48;;
10645;SDS011;5371;49.782;9.932;2024-03-02T11:33:23;9.05;;;7.97;;
10645;SDS011;5371;49.782;9.932;2024-03-02T11:35:52;10.43;;;8.20;;
10645;SDS011;5371;49.782;9.932;2024-03-02T11:38:19;10.35;;;8.23;;
10645;SDS011;5371;49.782;9.932;2024-03-02T11:40:46;10.52;;;7.95;;
10645;SDS011;5371;49.782;9.932;2024-03-02T11:43:15;10.65;;;8.73;;
10645;SDS011;5371;49.782;9.932;2024-03-02T11:45:43;9.32;;;8.07;;
10645;SDS011;5371;49.782;9.932;2024-03-02T11:48:11;8.13;;;7.22;;
10645;SDS011;5371;49.782;9.932;2024-03-02T11:50:40;8.77;;;6.97;;
10645;SDS011;5371;49.782;9.932;2024-03-02T11:53:08;8.93;;;7.70;;
10645;SDS011;5371;49.782;9.932;2024-03-02T11:55:36;9.68;;;8.00;;
10645;SDS011;5371;49.782;9.932;2024-03-02T11:58:04;9.55;;;8.55;;
10645;SDS011;5371;49.782;9.932;2024-03-02T12:00:33;9.63;;;8.10;;
10645;SDS011;5371;49.782;9.932;2024-03-02T12:03:00;11.02;;;8.52;;
10645;SDS011;5371;49.782;9.932;2024-03-02T12:05:28;9.38;;;8.23;;
10645;SDS011;5371;49.782;9.932;2024-03-02T12:07:56;7.82;;;6.75;;
10645;SDS011;5371;49.782;9.932;2024-03-02T12:10:24;8.45;;;6.70;;
10645;SDS011;5371;49.782;9.932;2024-03-02T12:12:57;8.00;;;6.68;;
10645;SDS011;5371;49.782;9.932;2024-03-02T12:15:25;7.40;;;6.60;;
10645;SDS011;5371;49.782;9.932;2024-03-02T12:17:54;8.13;;;6.50;;
10645;SDS011;5371;49.782;9.932;2024-03-02T12:20:22;7.47;;;6.57;;
10645;SDS011;5371;49.782;9.932;2024-03-02T12:22:50;6.72;;;6.03;;
10645;SDS011;5371;49.782;9.932;2024-03-02T12:25:18;6.47;;;5.70;;
10645;SDS011;5371;49.782;9.932;2024-03-02T12:27:46;8.93;;;5.30;;
10645;SDS011;5371;49.782;9.932;2024-03-02T12:30:13;6.10;;;5.15;;
10645;SDS011;5371;49.782;9.932;2024-03-02T12:32:40;5.78;;;5.07;;
10645;SDS011;5371;49.782;9.932;2024-03-02T12:35:09;5.88;;;5.00;;
10645;SDS011;5371;49.782;9.932;2024-03-02T12:37:43;5.90;;;5.30;;
10645;SDS011;5371;49.782;9.932;2024-03-02T12:40:10;6.55;;;5.63;;
10645;SDS011;5371;49.782;9.932;2024-03-02T12:42:37;7.88;;;6.10;;
10645;SDS011;5371;49.782;9.932;2024-03-02T12:45:05;6.90;;;5.55;;
10645;SDS011;5371;49.782;9.932;2024-03-02T12:47:33;5.72;;;5.00;;
10645;SDS011;5371;49.782;9.932;2024-03-02T12:50:05;6.05;;;4.95;;
10645;SDS011;5371;49.782;9.932;2024-03-02T12:52:35;5.80;;;5.20;;
10645;SDS011;5371;49.782;9.932;2024-03-02T12:55:04;7.65;;;5.15;;
10645;SDS011;5371;49.782;9.932;2024-03-02T12:57:32;8.20;;;5.88;;
10645;SDS011;5371;49.782;9.932;2024-03-02T13:00:00;7.40;;;6.13;;
10645;SDS011;5371;49.782;9.932;2024-03-02T13:02:27;7.65;;;6.03;;
10645;SDS011;5371;49.782;9.932;2024-03-02T13:04:55;6.78;;;5.45;;
10645;SDS011;5371;49.782;9.932;2024-03-02T13:07:23;6.32;;;4.88;;
10645;SDS011;5371;49.782;9.932;2024-03-02T13:09:51;7.28;;;5.03;;
10645;SDS011;5371;49.782;9.932;2024-03-02T13:12:20;8.20;;;5.70;;
10645;SDS011;5371;49.782;9.932;2024-03-02T13:14:48;6.90;;;5.57;;
10645;SDS011;5371;49.782;9.932;2024-03-02T13:17:17;7.47;;;4.70;;
10645;SDS011;5371;49.782;9.932;2024-03-02T13:19:50;5.88;;;4.72;;
10645;SDS011;5371;49.782;9.932;2024-03-02T13:22:18;5.90;;;4.32;;
10645;SDS011;5371;49.782;9.932;2024-03-02T13:24:45;6.43;;;4.30;;
10645;SDS011;5371;49.782;9.932;2024-03-02T13:27:13;3.67;;;3.22;;
10645;SDS011;5371;49.782;9.932;2024-03-02T13:32:34;5.03;;;3.00;;
10645;SDS011;5371;49.782;9.932;2024-03-02T13:35:01;5.15;;;3.83;;
10645;SDS011;5371;49.782;9.932;2024-03-02T13:37:29;5.88;;;4.15;;
10645;SDS011;5371;49.782;9.932;2024-03-02T13:39:56;6.05;;;4.22;;
10645;SDS011;5371;49.782;9.932;2024-03-02T13:42:24;6.53;;;4.38;;
10645;SDS011;5371;49.782;9.932;2024-03-02T13:44:51;4.70;;;3.90;;
10645;SDS011;5371;49.782;9.932;2024-03-02T13:47:18;6.90;;;5.13;;
10645;SDS011;5371;49.782;9.932;2024-03-02T13:49:46;8.10;;;6.00;;
10645;SDS011;5371;49.782;9.932;2024-03-02T13:52:14;7.38;;;5.43;;
10645;SDS011;5371;49.782;9.932;2024-03-02T13:54:42;8.18;;;5.88;;
10645;SDS011;5371;49.782;9.932;2024-03-02T13:57:10;8.20;;;5.65;;
10645;SDS011;5371;49.782;9.932;2024-03-02T13:59:39;6.75;;;5.20;;
10645;SDS011;5371;49.782;9.932;2024-03-02T14:02:07;6.63;;;5.28;;
10645;SDS011;5371;49.782;9.932;2024-03-02T14:04:35;5.78;;;4.72;;
10645;SDS011;5371;49.782;9.932;2024-03-02T14:07:02;6.80;;;4.22;;
10645;SDS011;5371;49.782;9.932;2024-03-02T14:09:32;5.60;;;4.20;;
10645;SDS011;5371;49.782;9.932;2024-03-02T14:11:59;6.10;;;4.80;;
10645;SDS011;5371;49.782;9.932;2024-03-02T14:14:26;5.88;;;4.70;;
10645;SDS011;5371;49.782;9.932;2024-03-02T14:16:55;5.50;;;4.00;;
10645;SDS011;5371;49.782;9.932;2024-03-02T14:19:26;4.35;;;3.20;;
10645;SDS011;5371;49.782;9.932;2024-03-02T14:21:53;3.55;;;2.28;;
10645;SDS011;5371;49.782;9.932;2024-03-02T14:24:21;2.78;;;2.42;;
10645;SDS011;5371;49.782;9.932;2024-03-02T14:26:51;2.92;;;2.00;;
10645;SDS011;5371;49.782;9.932;2024-03-02T14:29:18;2.38;;;1.90;;
10645;SDS011;5371;49.782;9.932;2024-03-02T14:31:45;2.92;;;1.98;;
10645;SDS011;5371;49.782;9.932;2024-03-02T14:34:15;3.65;;;1.73;;
10645;SDS011;5371;49.782;9.932;2024-03-02T14:36:42;3.67;;;2.35;;
10645;SDS011;5371;49.782;9.932;2024-03-02T14:39:09;2.80;;;2.33;;
10645;SDS011;5371;49.782;9.932;2024-03-02T14:41:36;2.63;;;2.08;;
10645;SDS011;5371;49.782;9.932;2024-03-02T14:44:03;2.45;;;2.10;;
10645;SDS011;5371;49.782;9.932;2024-03-02T14:46:31;2.30;;;1.95;;
10645;SDS011;5371;49.782;9.932;2024-03-02T14:48:58;2.22;;;1.98;;
10645;SDS011;5371;49.782;9.932;2024-03-02T14:51:26;2.80;;;2.38;;
10645;SDS011;5371;49.782;9.932;2024-03-02T14:53:55;3.38;;;2.28;;